Sutton, AK (99674)

6:35 PM AKDT on August 23, 2017 (GMT -0800)
Jonesville Mine | | Change Station

Elev 206 ft 61.72 °N, 148.90 °W | Updated 1 second ago

Rain
Rain
56.3 °F
Feels Like 56.3 °F
N
0.0
Wind Variable Wind from ESE
Gusts 0.0 mph

Today
High -- | Low -- °F
--% Chance of Precip.
Yesterday
High -- | Low -- °F
Precip. -- in
Pressure 29.63 in
Visibility 10.0 miles
Clouds Few 1500 ft
Overcast 6500 ft
Dew Point 54 °F
Humidity 92%
Rainfall 0.05 in
Snow Depth Not available.
6:23 AM 9:30 PM
Waxing Crescent, 7% visible
METAR PAAQ 240153Z 11008KT 10SM FEW015 OVC065 14/10 A2962 RMK AO2 SLP033 T01390100 $
Pressure 29.63 in
Visibility 10.0 miles
Clouds Few 1500 ft
Overcast 6500 ft
Dew Point 54 °F
Humidity 92%
Rainfall 0.05 in
Snow Depth Not available.
6:23 AM 9:30 PM
Waxing Crescent, 7% visible
METAR PAAQ 240153Z 11008KT 10SM FEW015 OVC065 14/10 A2962 RMK AO2 SLP033 T01390100 $

Get Severe Weather Alerts

Thanks for signing up!

Be on the lookout for a verification email in your inbox.

You'll start receiving the daily forecast at 6 AM.

×

10-Day Weather Forecast

Almanac

Astronomy

Aug. 23, 2017 Rise Set
Actual Time
Civil Twilight
Nautical Twilight
Astronomical Twilight
Moon
Length of Visible Light
Length of Day
Tomorrow will be .
, % of the Moon is Illuminated

Today's Extremes

State Highs State Lows

Community

WunderPhotos

Category 6

Welcome to Category 6. This is the collective home for Weather Underground's featured writeups by Dr. Jeff Masters (right), Bob Henson (left), Chris Burt, and other regular contributors.

Nearby

Air Quality

  Air Quality AQ Index Pollutant
Not available.

Snow Depth

Station Depth Elevation

Earthquake Activity

City Distance Mag. Time & Date
Minimum magnitude displayed is 2.5.

Coastal Water Temperatures

Place Temperature

Stations

Nearby Weather Stations

Station Location Temp. Windchill Dew Point Humidity Wind Precip. Elev Updated Type
                   

Watches & Warnings

There are currently no watches in effect.